createdAt,value
2022-10-05T00:01:44.178Z,11.75
2022-10-05T00:04:22.797Z,11.67
2022-10-05T00:07:20.553Z,11.60
2022-10-05T00:10:21.753Z,11.47
2022-10-05T00:12:48.729Z,11.39
2022-10-05T00:15:17.941Z,11.34
2022-10-05T00:17:51.308Z,11.25
2022-10-05T00:20:24.308Z,11.23
2022-10-05T00:22:58.170Z,11.09
2022-10-05T00:25:25.166Z,11.08
2022-10-05T00:28:37.813Z,11.04
2022-10-05T00:31:14.420Z,10.96
2022-10-05T00:33:55.025Z,10.85
2022-10-05T00:36:26.085Z,10.81
2022-10-05T00:38:53.416Z,10.78
2022-10-05T00:41:49.452Z,10.74
2022-10-05T00:59:59.201Z,10.50
2022-10-05T01:23:22.445Z,10.48
2022-10-05T01:26:24.246Z,10.52
2022-10-05T01:29:16.815Z,10.51
2022-10-05T01:32:11.117Z,10.54
2022-10-05T01:35:06.064Z,10.56
2022-10-05T01:37:47.824Z,10.59
2022-10-05T01:40:38.683Z,10.64
2022-10-05T01:43:20.328Z,10.67
2022-10-05T01:45:58.268Z,10.70
2022-10-05T01:49:02.048Z,10.72
2022-10-05T01:51:43.980Z,10.74
2022-10-05T01:54:20.273Z,10.76
2022-10-05T01:57:00.237Z,10.80
2022-10-05T01:59:49.435Z,10.84
2022-10-05T02:02:17.448Z,10.88
2022-10-05T02:05:03.488Z,10.89
2022-10-05T02:07:37.963Z,10.92
2022-10-05T02:10:33.204Z,10.96
2022-10-05T02:13:25.516Z,11.00
2022-10-05T02:16:03.794Z,11.01
2022-10-05T02:18:34.217Z,11.04
2022-10-05T02:21:04.671Z,11.03
2022-10-05T02:23:33.863Z,11.03
2022-10-05T02:26:01.123Z,11.04
2022-10-05T02:28:38.510Z,11.00
2022-10-05T02:31:15.104Z,10.99
2022-10-05T02:33:41.621Z,10.95
2022-10-05T02:36:17.283Z,10.96
2022-10-05T02:38:55.852Z,11.01
2022-10-05T02:41:56.474Z,11.01
2022-10-05T02:44:31.896Z,11.07
2022-10-05T02:47:00.408Z,11.10
2022-10-05T02:49:52.896Z,11.13
2022-10-05T02:52:28.059Z,11.09
2022-10-05T02:55:18.015Z,11.09
2022-10-05T02:57:52.663Z,11.09
2022-10-05T03:00:24.085Z,11.10
2022-10-05T03:03:01.147Z,11.12
2022-10-05T03:06:10.071Z,11.12
2022-10-05T03:08:58.627Z,11.10
2022-10-05T03:11:30.494Z,11.11
2022-10-05T03:14:15.353Z,11.09
2022-10-05T03:17:03.588Z,11.09
2022-10-05T03:19:58.361Z,11.05
2022-10-05T03:22:44.084Z,11.02
2022-10-05T03:25:28.857Z,10.98
2022-10-05T03:27:59.147Z,10.89
2022-10-05T03:30:28.711Z,10.80
2022-10-05T03:33:21.423Z,10.71
2022-10-05T03:35:51.583Z,10.67
2022-10-05T03:38:40.320Z,10.66
2022-10-05T03:41:17.791Z,10.64
2022-10-05T03:44:09.369Z,10.62
2022-10-05T03:46:52.537Z,10.56
2022-10-05T03:49:43.396Z,10.54
2022-10-05T03:52:16.680Z,10.50
2022-10-05T03:54:51.887Z,10.46
2022-10-05T03:57:21.579Z,10.36
2022-10-05T04:00:06.480Z,10.32
2022-10-05T04:03:24.793Z,10.27
2022-10-05T04:05:56.537Z,10.19
2022-10-05T04:08:47.860Z,10.10
2022-10-05T04:11:32.381Z,10.04
2022-10-05T04:14:05.125Z,10.04
2022-10-05T04:16:35.289Z,9.99
2022-10-05T04:19:17.275Z,9.88
2022-10-05T04:21:51.700Z,9.83
2022-10-05T04:24:24.696Z,9.83
2022-10-05T04:26:55.295Z,9.80
2022-10-05T04:29:33.961Z,9.76
2022-10-05T04:32:16.769Z,9.73
2022-10-05T04:35:24.175Z,9.70
2022-10-05T04:38:14.037Z,9.66
2022-10-05T04:40:54.137Z,9.63
2022-10-05T04:43:34.795Z,9.62
2022-10-05T04:46:06.648Z,9.65
2022-10-05T04:48:51.260Z,9.66
2022-10-05T04:51:29.893Z,9.67
2022-10-05T04:54:20.097Z,9.69
2022-10-05T04:56:53.424Z,9.68
2022-10-05T04:59:43.468Z,9.71
2022-10-05T05:02:20.106Z,9.73
2022-10-05T05:04:51.777Z,9.74
2022-10-05T05:07:31.059Z,9.78
2022-10-05T05:10:12.387Z,9.76
2022-10-05T05:13:07.433Z,9.73
2022-10-05T05:16:02.145Z,9.74
2022-10-05T05:19:06.536Z,9.76
2022-10-05T05:21:50.720Z,9.78
2022-10-05T05:24:24.836Z,9.77
2022-10-05T05:27:27.668Z,9.78
2022-10-05T05:30:02.853Z,9.78
2022-10-05T05:32:41.493Z,9.77
2022-10-05T05:35:45.247Z,9.80
2022-10-05T05:38:20.792Z,9.83
2022-10-05T05:41:03.973Z,9.83
2022-10-05T05:43:56.985Z,9.88
2022-10-05T05:46:51.141Z,9.90
2022-10-05T05:49:18.678Z,9.95
2022-10-05T05:52:16.195Z,10.00
2022-10-05T05:54:53.866Z,10.06
2022-10-05T05:57:26.879Z,10.14
2022-10-05T06:00:05.580Z,10.15
2022-10-05T06:02:50.975Z,10.19
2022-10-05T06:05:27.758Z,10.27
2022-10-05T06:07:58.288Z,10.31
2022-10-05T06:10:28.980Z,10.35
2022-10-05T06:13:07.275Z,10.40
2022-10-05T06:15:35.156Z,10.44
2022-10-05T06:18:14.213Z,10.44
2022-10-05T06:21:22.432Z,10.51
2022-10-05T06:24:14.921Z,10.53
2022-10-05T06:27:03.703Z,10.56
2022-10-05T06:29:35.203Z,10.61
2022-10-05T06:32:06.903Z,10.67
2022-10-05T06:35:03.728Z,10.70
2022-10-05T06:37:52.052Z,10.77
2022-10-05T06:40:45.962Z,10.85
2022-10-05T06:43:23.331Z,10.89
2022-10-05T06:46:22.754Z,10.90
2022-10-05T06:49:18.035Z,10.88
2022-10-05T06:52:19.968Z,10.87
2022-10-05T06:55:06.553Z,10.84
2022-10-05T06:57:50.077Z,10.85
2022-10-05T07:00:20.646Z,10.85
2022-10-05T07:03:17.208Z,10.86
2022-10-05T07:06:14.228Z,10.95
2022-10-05T07:08:47.132Z,11.03
2022-10-05T07:11:31.383Z,11.08
2022-10-05T07:14:24.348Z,11.19
2022-10-05T07:17:18.420Z,11.26
2022-10-05T07:20:00.916Z,11.32
2022-10-05T07:22:55.203Z,11.36
2022-10-05T07:25:40.313Z,11.42
2022-10-05T07:28:10.763Z,11.48
2022-10-05T07:30:50.179Z,11.51
2022-10-05T07:33:25.729Z,11.52
2022-10-05T07:36:19.432Z,11.55
2022-10-05T07:38:54.620Z,11.58
2022-10-05T07:41:32.261Z,11.61
2022-10-05T07:44:12.519Z,11.64
2022-10-05T07:46:55.013Z,11.66
2022-10-05T07:49:26.928Z,11.67
2022-10-05T07:52:17.429Z,11.67
2022-10-05T07:55:11.843Z,11.71
2022-10-05T07:57:40.432Z,11.73
2022-10-05T08:00:14.464Z,11.74
2022-10-05T08:02:52.983Z,11.79
2022-10-05T08:05:21.827Z,11.82
2022-10-05T08:07:52.110Z,11.82
2022-10-05T08:10:39.692Z,11.83
2022-10-05T08:13:32.807Z,11.84
2022-10-05T08:16:02.080Z,11.91
2022-10-05T08:18:48.287Z,12.00
2022-10-05T08:21:16.270Z,12.05
2022-10-05T08:23:48.931Z,12.09
2022-10-05T08:26:38.880Z,12.15
2022-10-05T08:29:21.284Z,12.19
2022-10-05T08:31:51.534Z,12.25
2022-10-05T08:34:30.905Z,12.31
2022-10-05T08:37:09.212Z,12.36
2022-10-05T08:39:40.785Z,12.41
2022-10-05T08:42:35.304Z,12.46
2022-10-05T08:45:30.720Z,12.49
2022-10-05T08:48:18.852Z,12.55
2022-10-05T08:51:06.564Z,12.65
2022-10-05T08:53:41.484Z,12.77
2022-10-05T08:56:28.486Z,12.94
2022-10-05T08:59:18.016Z,13.09
2022-10-05T09:01:56.454Z,13.23
2022-10-05T09:04:37.829Z,13.41
2022-10-05T09:07:37.991Z,13.54
2022-10-05T09:10:33.540Z,13.69
2022-10-05T09:13:23.315Z,13.84
2022-10-05T09:16:11.171Z,13.98
2022-10-05T09:19:11.692Z,14.06
2022-10-05T09:21:41.897Z,14.15
2022-10-05T09:24:14.194Z,14.23
2022-10-05T09:26:40.479Z,14.29
2022-10-05T09:29:38.116Z,14.35
2022-10-05T09:32:23.641Z,14.41
2022-10-05T09:35:05.178Z,14.47
2022-10-05T09:37:53.429Z,14.52
2022-10-05T09:40:51.054Z,14.60
2022-10-05T09:43:46.676Z,14.71
2022-10-05T09:46:45.744Z,14.81
2022-10-05T09:49:32.072Z,14.89
2022-10-05T09:52:31.335Z,14.98
2022-10-05T09:55:09.144Z,15.07
2022-10-05T09:58:12.623Z,15.14
2022-10-05T10:01:09.416Z,15.20
2022-10-05T10:04:10.251Z,15.28
2022-10-05T10:06:55.555Z,15.38
2022-10-05T10:09:38.496Z,15.47
2022-10-05T10:12:29.892Z,15.55
2022-10-05T10:15:32.597Z,15.64
2022-10-05T10:18:37.077Z,15.71
2022-10-05T10:21:33.795Z,15.81
2022-10-05T10:24:10.372Z,15.85
2022-10-05T10:27:05.284Z,15.81
2022-10-05T10:29:56.491Z,15.82
2022-10-05T10:32:42.205Z,15.87
2022-10-05T10:35:22.722Z,15.93
2022-10-05T10:38:17.309Z,16.01
2022-10-05T10:41:05.558Z,16.01
2022-10-05T10:43:40.996Z,16.07
2022-10-05T10:46:29.232Z,16.10
2022-10-05T10:49:21.880Z,16.13
2022-10-05T10:52:19.884Z,16.19
2022-10-05T10:55:05.467Z,16.25
2022-10-05T10:58:16.203Z,16.33
2022-10-05T11:01:09.679Z,16.41
2022-10-05T11:04:01.252Z,16.51
2022-10-05T11:06:58.259Z,16.59
2022-10-05T11:09:55.764Z,16.65
2022-10-05T11:12:59.655Z,16.68
2022-10-05T11:15:53.321Z,16.71
2022-10-05T11:18:46.671Z,16.75
2022-10-05T11:21:37.104Z,16.80
2022-10-05T11:24:28.256Z,16.87
2022-10-05T11:27:25.752Z,16.98
2022-10-05T11:30:13.754Z,17.05
2022-10-05T11:33:03.807Z,17.09
2022-10-05T11:35:49.160Z,17.14
2022-10-05T11:38:27.327Z,17.20
2022-10-05T11:41:06.048Z,17.26
2022-10-05T11:43:38.503Z,17.31
2022-10-05T11:46:08.627Z,17.40
2022-10-05T11:48:57.283Z,17.48
2022-10-05T11:52:00.554Z,17.60
2022-10-05T11:57:43.113Z,17.78
2022-10-05T12:00:21.032Z,17.87
2022-10-05T12:03:21.535Z,17.95
2022-10-05T12:06:11.351Z,18.09
2022-10-05T12:08:56.468Z,18.14
2022-10-05T12:11:57.756Z,18.23
2022-10-05T12:14:33.374Z,18.30
2022-10-05T12:17:11.119Z,18.38
2022-10-05T12:19:46.031Z,18.50
2022-10-05T12:22:27.213Z,18.58
2022-10-05T12:25:15.721Z,18.63
2022-10-05T12:27:46.082Z,18.71
2022-10-05T12:30:18.076Z,18.84
2022-10-05T12:33:10.608Z,18.90
2022-10-05T12:35:48.185Z,18.97
2022-10-05T12:38:28.784Z,19.05
2022-10-05T12:41:13.431Z,19.09
2022-10-05T12:44:13.200Z,19.15
2022-10-05T12:47:01.028Z,19.16
2022-10-05T12:49:43.419Z,19.23
2022-10-05T12:52:28.207Z,19.33
2022-10-05T12:55:33.061Z,19.42
2022-10-05T12:58:15.788Z,19.53
2022-10-05T13:01:24.432Z,19.62
2022-10-05T13:03:56.960Z,19.71
2022-10-05T13:06:28.523Z,19.76
2022-10-05T13:09:08.434Z,19.78
2022-10-05T13:11:42.763Z,19.82
2022-10-05T13:14:51.320Z,19.82
2022-10-05T13:17:34.613Z,19.83
2022-10-05T13:20:14.468Z,19.85
2022-10-05T13:22:43.927Z,19.91
2022-10-05T13:25:13.228Z,19.97
2022-10-05T13:27:45.597Z,20.03
2022-10-05T13:30:12.164Z,20.10
2022-10-05T13:32:56.936Z,20.12
2022-10-05T13:35:40.190Z,20.09
2022-10-05T13:38:51.306Z,20.13
2022-10-05T13:41:32.747Z,20.25
2022-10-05T13:44:06.004Z,20.37
2022-10-05T13:46:36.794Z,20.43
2022-10-05T13:49:09.209Z,20.47
2022-10-05T13:51:48.666Z,20.50
2022-10-05T13:54:40.548Z,20.57
2022-10-05T13:57:12.947Z,20.65
2022-10-05T13:59:48.485Z,20.70
2022-10-05T14:02:22.028Z,20.74
2022-10-05T14:04:58.461Z,20.74
2022-10-05T14:07:36.636Z,20.77
2022-10-05T14:10:10.433Z,20.78
2022-10-05T14:12:42.137Z,20.80
2022-10-05T14:15:42.112Z,20.84
2022-10-05T14:18:24.999Z,20.88
2022-10-05T14:21:03.080Z,20.88
2022-10-05T14:23:29.970Z,20.87
2022-10-05T14:25:57.390Z,20.89
2022-10-05T14:28:30.931Z,20.89
2022-10-05T14:31:13.433Z,20.88
2022-10-05T14:33:40.710Z,20.89
2022-10-05T14:36:43.777Z,20.93
2022-10-05T14:39:13.663Z,20.99
2022-10-05T14:41:48.776Z,21.04
2022-10-05T14:44:15.316Z,21.10
2022-10-05T14:47:02.630Z,21.15
2022-10-05T14:49:30.464Z,21.23
2022-10-05T14:51:57.146Z,21.28
2022-10-05T14:54:41.087Z,21.34
2022-10-05T14:57:39.178Z,21.39
2022-10-05T15:00:17.810Z,21.44
2022-10-05T15:02:47.891Z,21.50
2022-10-05T15:05:23.176Z,21.43
2022-10-05T15:07:51.056Z,21.41
2022-10-05T15:10:52.061Z,21.39
2022-10-05T15:13:24.253Z,21.38
2022-10-05T15:15:56.072Z,21.40
2022-10-05T15:18:35.017Z,21.41
2022-10-05T15:21:04.332Z,21.42
2022-10-05T15:23:57.295Z,21.43
2022-10-05T15:26:45.726Z,21.43
2022-10-05T15:29:52.216Z,21.36
2022-10-05T15:32:49.685Z,21.25
2022-10-05T15:35:37.186Z,21.10
2022-10-05T15:38:25.756Z,21.01
2022-10-05T15:41:14.740Z,20.94
2022-10-05T15:43:58.969Z,20.87
2022-10-05T15:46:36.640Z,20.87
2022-10-05T15:49:22.161Z,20.89
2022-10-05T15:51:58.148Z,20.88
2022-10-05T15:55:02.607Z,20.90
2022-10-05T15:57:48.257Z,20.89
2022-10-05T16:00:19.525Z,20.86
2022-10-05T16:03:17.708Z,20.85
2022-10-05T16:06:26.187Z,20.87
2022-10-05T16:09:03.740Z,20.87
2022-10-05T16:11:48.371Z,20.85
2022-10-05T16:14:49.935Z,20.79
2022-10-05T16:17:16.258Z,20.75
2022-10-05T16:20:03.037Z,20.73
2022-10-05T16:22:43.354Z,20.69
2022-10-05T16:25:22.040Z,20.64
2022-10-05T16:28:15.278Z,20.63
2022-10-05T16:31:06.586Z,20.54
2022-10-05T16:33:52.725Z,20.46
2022-10-05T16:36:53.016Z,20.40
2022-10-05T16:39:34.925Z,20.30
2022-10-05T16:42:26.196Z,20.22
2022-10-05T16:45:23.946Z,20.14
2022-10-05T16:48:01.623Z,20.10
2022-10-05T16:50:38.738Z,20.05
2022-10-05T16:53:15.005Z,20.02
2022-10-05T16:55:46.187Z,20.00
2022-10-05T16:58:19.057Z,19.96
2022-10-05T17:00:51.820Z,19.93
2022-10-05T17:03:27.582Z,19.87
2022-10-05T17:05:56.872Z,19.87
2022-10-05T17:08:31.819Z,19.84
2022-10-05T17:11:17.286Z,19.84
2022-10-05T17:14:09.816Z,19.84
2022-10-05T17:16:53.888Z,19.83
2022-10-05T17:19:32.786Z,19.86
2022-10-05T17:22:00.715Z,19.90
2022-10-05T17:24:41.616Z,19.85
2022-10-05T17:27:17.921Z,19.79
2022-10-05T17:29:52.928Z,19.74
2022-10-05T17:32:19.389Z,19.75
2022-10-05T17:35:01.019Z,19.74
2022-10-05T17:37:27.431Z,19.74
2022-10-05T17:39:55.467Z,19.74
2022-10-05T17:42:36.899Z,19.76
2022-10-05T17:45:09.208Z,19.77
2022-10-05T17:48:09.445Z,19.77
2022-10-05T17:51:02.773Z,19.75
2022-10-05T17:54:03.159Z,19.72
2022-10-05T17:56:31.244Z,19.70
2022-10-05T17:59:06.565Z,19.71
2022-10-05T18:01:36.040Z,19.68
2022-10-05T18:04:11.695Z,19.63
2022-10-05T18:06:44.727Z,19.60
2022-10-05T18:09:11.356Z,19.57
2022-10-05T18:11:39.912Z,19.51
2022-10-05T18:14:19.853Z,19.48
2022-10-05T18:17:09.839Z,19.49
2022-10-05T18:19:37.565Z,19.53
2022-10-05T18:22:16.201Z,19.54
2022-10-05T18:28:06.551Z,19.50
2022-10-05T18:30:36.732Z,19.50
2022-10-05T18:33:13.795Z,19.44
2022-10-05T18:36:18.640Z,19.42
2022-10-05T18:38:56.312Z,19.44
2022-10-05T18:42:20.022Z,19.38
2022-10-05T18:44:50.159Z,19.38
2022-10-05T18:47:38.383Z,19.36
2022-10-05T18:50:23.240Z,19.34
2022-10-05T18:52:59.855Z,19.31
2022-10-05T18:55:38.160Z,19.30
2022-10-05T18:58:08.591Z,19.30
2022-10-05T19:01:02.032Z,19.27
2022-10-05T19:03:49.484Z,19.24
2022-10-05T19:06:24.217Z,19.20
2022-10-05T19:09:22.047Z,19.15
2022-10-05T19:12:10.357Z,19.13
2022-10-05T19:15:06.545Z,19.14
2022-10-05T19:17:47.903Z,19.14
2022-10-05T19:21:04.115Z,19.15
2022-10-05T19:23:45.880Z,19.16
2022-10-05T19:26:27.905Z,19.14
2022-10-05T19:29:16.307Z,19.14
2022-10-05T19:31:55.406Z,19.15
2022-10-05T19:34:30.651Z,19.13
2022-10-05T19:37:07.982Z,19.12
2022-10-05T19:39:37.480Z,19.15
2022-10-05T19:42:13.076Z,19.15
2022-10-05T19:44:57.771Z,19.16
2022-10-05T19:47:29.908Z,19.19
2022-10-05T19:49:56.151Z,19.19
2022-10-05T19:52:24.889Z,19.21
2022-10-05T19:55:10.052Z,19.21
2022-10-05T19:57:37.507Z,19.19
2022-10-05T20:00:03.960Z,19.17
2022-10-05T20:02:32.457Z,19.15
2022-10-05T20:05:05.529Z,19.13
2022-10-05T20:07:34.321Z,19.13
2022-10-05T20:10:19.673Z,19.10
2022-10-05T20:12:57.571Z,19.08
2022-10-05T20:15:46.226Z,19.10
2022-10-05T20:18:53.122Z,19.09
2022-10-05T20:21:37.156Z,19.08
2022-10-05T20:24:07.577Z,19.09
2022-10-05T20:27:02.461Z,19.09
2022-10-05T20:29:29.363Z,19.08
2022-10-05T20:31:55.885Z,19.06
2022-10-05T20:34:22.309Z,19.04
2022-10-05T20:36:49.069Z,19.02
2022-10-05T20:39:15.846Z,19.01
2022-10-05T20:41:42.865Z,18.97
2022-10-05T20:44:15.001Z,18.94
2022-10-05T20:46:41.614Z,18.91
2022-10-05T20:49:10.500Z,18.90
2022-10-05T20:51:37.523Z,18.87
2022-10-05T20:54:04.200Z,18.83
2022-10-05T20:56:31.382Z,18.82
2022-10-05T20:58:58.227Z,18.80
2022-10-05T21:01:26.848Z,18.78
2022-10-05T21:03:53.666Z,18.76
2022-10-05T21:06:27.960Z,18.75
2022-10-05T21:08:54.355Z,18.72
2022-10-05T21:11:21.164Z,18.70
2022-10-05T21:13:47.571Z,18.69
2022-10-05T21:16:15.453Z,18.66
2022-10-05T21:18:42.212Z,18.66
2022-10-05T21:21:08.600Z,18.62
2022-10-05T21:23:34.976Z,18.59
2022-10-05T21:26:01.480Z,18.55
2022-10-05T21:28:28.552Z,18.54
2022-10-05T21:30:56.279Z,18.51
2022-10-05T21:33:22.606Z,18.49
2022-10-05T21:35:50.485Z,18.50
2022-10-05T21:38:16.825Z,18.47
2022-10-05T21:40:45.333Z,18.44
2022-10-05T21:43:13.245Z,18.43
2022-10-05T21:45:39.711Z,18.40
2022-10-05T21:48:06.081Z,18.39
2022-10-05T21:50:32.548Z,18.34
2022-10-05T21:52:59.740Z,18.33
2022-10-05T21:55:26.044Z,18.31
2022-10-05T21:57:52.373Z,18.30
2022-10-05T22:00:20.707Z,18.27
2022-10-05T22:02:47.287Z,18.24
2022-10-05T22:05:16.125Z,18.22
2022-10-05T22:07:42.694Z,18.20
2022-10-05T22:10:09.351Z,18.15
2022-10-05T22:12:35.759Z,18.08
2022-10-05T22:15:02.733Z,18.04
2022-10-05T22:17:30.947Z,18.01
2022-10-05T22:20:00.618Z,17.99
2022-10-05T22:22:27.704Z,17.98
2022-10-05T22:24:54.244Z,17.95
2022-10-05T22:27:24.734Z,17.96
2022-10-05T22:29:53.054Z,17.98
2022-10-05T22:32:19.439Z,17.98
2022-10-05T22:34:45.756Z,17.98
2022-10-05T22:37:15.515Z,17.99
2022-10-05T22:39:43.247Z,18.00
2022-10-05T22:42:09.732Z,18.00
2022-10-05T22:44:36.026Z,18.00
2022-10-05T22:47:02.803Z,17.98
2022-10-05T22:49:29.510Z,17.96
2022-10-05T22:51:56.325Z,17.95
2022-10-05T22:54:27.453Z,17.95
2022-10-05T22:56:57.090Z,17.95
2022-10-05T22:59:23.442Z,17.93
2022-10-05T23:01:49.775Z,17.94
2022-10-05T23:04:16.132Z,17.95
2022-10-05T23:06:42.641Z,18.00
2022-10-05T23:09:08.952Z,18.01
2022-10-05T23:11:35.520Z,18.05
2022-10-05T23:14:48.736Z,18.08
2022-10-05T23:17:19.223Z,18.04
2022-10-05T23:19:45.544Z,18.05
2022-10-05T23:22:11.863Z,17.99
2022-10-05T23:24:38.329Z,17.98
2022-10-05T23:27:04.720Z,17.92
2022-10-05T23:29:31.052Z,17.90
2022-10-05T23:31:57.367Z,17.92
2022-10-05T23:34:25.536Z,17.91
2022-10-05T23:36:51.929Z,17.90
2022-10-05T23:39:18.240Z,17.91
2022-10-05T23:41:44.559Z,17.91
2022-10-05T23:44:10.907Z,17.86
2022-10-05T23:46:37.206Z,17.82
2022-10-05T23:49:04.712Z,17.77
2022-10-05T23:51:31.204Z,17.78
2022-10-05T23:53:57.526Z,17.75
2022-10-05T23:56:23.807Z,17.75
2022-10-05T23:58:50.117Z,17.77
